Airfield :
LOGIN :

Register | Disclaimer

   EN    FR    IT 

 










Legend :    VFR   Marginal VFR   IFR   Intensive IFR   Very Intensive IFR
Visi :
Ceiling :
>= 8 km
>= 3000ft
5 to 8 km
1000 to 3000 ft
1500m to 5 km
500 to 1000 ft
800 to 1500m
200 to 500 ft
< 800m
< 200 ft
Symbols :   Thunderstorms  Fog  Heavy snow  Heavy precipitations  Wind > 20 kt
SIGMETs :     Misc.  Thunderstorms  Icing  Turbulence  Mountain Waves  Volcanic Ashes






- Airport Elevation : 870 ft
- IATA code : ETZ


LFJL - Metz Nancy Lorraine

CURRENT METAR :
  • 090430Z AUTO 11006KT CAVOK 22/13 Q1018 NOSIG

EXPIRED METARs :
  • 090400Z AUTO VRB05KT CAVOK 21/13 Q1018 NOSIG
  • 090330Z AUTO 08003KT CAVOK 21/12 Q1018 NOSIG
  • 090300Z AUTO 00000KT CAVOK 22/12 Q1018 NOSIG
  • 090230Z AUTO 10004KT 050V120 CAVOK 23/12 Q1018 NOSIG
  • 090200Z AUTO 13006KT 120V210 CAVOK 23/12 Q1018 NOSIG

TAF TAF LFJL
Valid from the 09 at 00:00 until the 10 at 00:00 UTC


082300Z 0900/0924 VRB03KT CAVOK
BECMG 0909/0912 09007KT
PROB40
TEMPO 0916/0923 35015G25KT FEW090CB SCT100



MET'MAP, your aeronautical weather chart ! - Copyright ORBIFLY December 2007 - Disclaimer

ORBIFLY MET'MAP TEAM :

Programming & Development : Alexandra Zaïnal
Concept & original design : Baudouin d'Aumeries
Assistance for programming : Marc-Olivier Méhu
Technical & hardware support : Manuel Goepfert

Contact : metmap@orbifly.com




SOURCES & CREDITS :

   NOAA